createdAt,value
2023-03-29T00:01:35.264Z,5.87
2023-03-29T00:03:44.375Z,13.30
2023-03-29T00:05:48.036Z,6.13
2023-03-29T00:07:53.953Z,8.30
2023-03-29T00:09:58.651Z,7.20
2023-03-29T00:12:02.721Z,5.70
2023-03-29T00:14:06.615Z,4.17
2023-03-29T00:16:10.615Z,5.17
2023-03-29T00:18:14.007Z,5.10
2023-03-29T00:20:17.819Z,5.63
2023-03-29T00:22:21.303Z,6.10
2023-03-29T00:24:24.585Z,5.10
2023-03-29T00:26:29.236Z,5.63
2023-03-29T00:28:32.704Z,4.97
2023-03-29T00:30:36.078Z,10.03
2023-03-29T00:32:39.374Z,7.60
2023-03-29T00:34:46.072Z,5.03
2023-03-29T00:36:50.807Z,5.03
2023-03-29T00:38:56.648Z,5.87
2023-03-29T00:41:01.521Z,6.60
2023-03-29T00:43:09.859Z,7.17
2023-03-29T00:45:20.825Z,4.40
2023-03-29T00:47:28.820Z,6.73
2023-03-29T00:49:32.511Z,7.10
2023-03-29T00:51:39.347Z,7.23
2023-03-29T00:53:48.368Z,6.60
2023-03-29T00:55:56.798Z,4.97
2023-03-29T00:58:02.624Z,6.27
2023-03-29T01:00:10.042Z,4.30
2023-03-29T01:02:14.989Z,5.93
2023-03-29T01:04:24.838Z,5.33
2023-03-29T01:06:31.404Z,4.80
2023-03-29T01:08:38.701Z,5.53
2023-03-29T01:10:46.657Z,5.83
2023-03-29T01:12:53.802Z,7.50
2023-03-29T01:15:02.481Z,3.47
2023-03-29T01:17:07.989Z,3.40
2023-03-29T01:19:16.555Z,3.40
2023-03-29T01:21:27.818Z,6.10
2023-03-29T01:23:51.079Z,3.00
2023-03-29T01:26:02.951Z,5.30
2023-03-29T01:28:11.949Z,2.67
2023-03-29T01:30:19.462Z,3.53
2023-03-29T01:32:27.159Z,6.43
2023-03-29T01:34:36.616Z,3.83
2023-03-29T01:36:45.506Z,3.73
2023-03-29T01:38:54.473Z,5.53
2023-03-29T01:40:58.004Z,3.60
2023-03-29T01:43:12.563Z,4.50
2023-03-29T01:45:23.615Z,4.73
2023-03-29T01:47:33.885Z,3.03
2023-03-29T01:49:42.191Z,3.50
2023-03-29T01:51:53.980Z,3.17
2023-03-29T01:54:01.940Z,3.43
2023-03-29T01:56:09.610Z,3.53
2023-03-29T01:58:17.545Z,4.17
2023-03-29T02:00:25.843Z,5.70
2023-03-29T02:02:31.743Z,3.43
2023-03-29T02:04:39.047Z,5.53
2023-03-29T02:06:43.549Z,4.53
2023-03-29T02:08:48.466Z,6.07
2023-03-29T02:10:52.765Z,9.67
2023-03-29T02:12:56.801Z,11.37
2023-03-29T02:15:01.965Z,11.40
2023-03-29T02:17:18.225Z,7.67
2023-03-29T02:19:23.967Z,5.63
2023-03-29T02:21:31.506Z,4.80
2023-03-29T02:23:38.809Z,5.87
2023-03-29T02:25:43.398Z,6.27
2023-03-29T02:27:47.135Z,7.63
2023-03-29T02:29:50.539Z,6.60
2023-03-29T02:32:00.592Z,4.80
2023-03-29T02:34:08.749Z,4.10
2023-03-29T02:36:18.072Z,6.90
2023-03-29T02:38:25.509Z,8.80
2023-03-29T02:40:29.804Z,6.57
2023-03-29T02:42:33.222Z,5.43
2023-03-29T02:44:40.670Z,5.60
2023-03-29T02:46:44.501Z,4.80
2023-03-29T02:48:54.341Z,7.10
2023-03-29T02:51:03.001Z,7.40
2023-03-29T02:53:11.521Z,5.00
2023-03-29T02:55:20.271Z,5.20
2023-03-29T02:57:26.657Z,5.90
2023-03-29T02:59:31.498Z,4.83
2023-03-29T03:01:36.671Z,12.20
2023-03-29T03:03:41.213Z,7.30
2023-03-29T03:05:46.020Z,8.33
2023-03-29T03:07:49.379Z,7.43
2023-03-29T03:09:53.214Z,7.33
2023-03-29T03:11:56.769Z,7.13
2023-03-29T03:14:01.704Z,5.23
2023-03-29T03:16:06.058Z,4.50
2023-03-29T03:18:10.507Z,5.63
2023-03-29T03:20:14.610Z,3.70
2023-03-29T03:22:20.344Z,6.53
2023-03-29T03:24:23.713Z,5.90
2023-03-29T03:26:30.111Z,4.60
2023-03-29T03:28:34.249Z,4.67
2023-03-29T03:30:41.143Z,4.70
2023-03-29T03:32:54.801Z,4.23
2023-03-29T03:35:16.964Z,4.60
2023-03-29T03:37:22.525Z,3.10
2023-03-29T03:39:26.365Z,3.73
2023-03-29T03:41:30.750Z,6.80
2023-03-29T03:43:34.404Z,3.90
2023-03-29T03:45:37.877Z,3.30
2023-03-29T03:47:51.451Z,3.50
2023-03-29T03:50:13.774Z,6.80
2023-03-29T03:52:17.375Z,4.93
2023-03-29T03:54:22.066Z,4.50
2023-03-29T03:56:57.449Z,3.67
2023-03-29T03:59:12.513Z,3.37
2023-03-29T04:01:43.463Z,4.40
2023-03-29T04:03:53.849Z,5.10
2023-03-29T04:06:01.758Z,4.10
2023-03-29T04:08:14.276Z,4.50
2023-03-29T04:10:59.343Z,4.47
2023-03-29T04:13:08.497Z,11.37
2023-03-29T04:15:26.662Z,12.60
2023-03-29T04:17:39.014Z,7.00
2023-03-29T04:19:56.371Z,6.40
2023-03-29T04:22:00.407Z,5.90
2023-03-29T04:24:03.796Z,4.33
2023-03-29T04:26:12.054Z,5.77
2023-03-29T04:28:28.006Z,5.40
2023-03-29T04:30:52.282Z,5.33
2023-03-29T04:33:25.218Z,8.53
2023-03-29T04:35:35.635Z,8.63
2023-03-29T04:37:41.804Z,8.07
2023-03-29T04:39:49.965Z,7.33
2023-03-29T04:41:55.195Z,4.77
2023-03-29T04:44:03.538Z,4.60
2023-03-29T04:46:08.327Z,7.53
2023-03-29T04:48:43.917Z,4.83
2023-03-29T04:50:48.542Z,5.70
2023-03-29T04:52:54.756Z,5.13
2023-03-29T04:54:58.942Z,3.70
2023-03-29T04:57:17.019Z,6.23
2023-03-29T04:59:32.491Z,2.47
2023-03-29T05:01:37.519Z,4.60
2023-03-29T05:03:40.849Z,2.33
2023-03-29T05:05:56.345Z,2.97
2023-03-29T05:07:59.630Z,3.30
2023-03-29T05:10:10.917Z,6.17
2023-03-29T05:12:16.044Z,5.40
2023-03-29T05:14:29.565Z,5.37
2023-03-29T05:16:34.509Z,12.87
2023-03-29T05:18:38.088Z,5.70
2023-03-29T05:20:42.203Z,5.33
2023-03-29T05:22:48.598Z,6.43
2023-03-29T05:25:13.326Z,5.10
2023-03-29T05:27:20.990Z,3.93
2023-03-29T05:29:35.149Z,3.97
2023-03-29T05:31:56.879Z,3.20
2023-03-29T05:34:00.426Z,4.73
2023-03-29T05:36:08.677Z,6.43
2023-03-29T05:38:16.034Z,7.47
2023-03-29T05:40:20.045Z,5.40
2023-03-29T05:42:53.463Z,5.40
2023-03-29T05:44:56.852Z,6.23
2023-03-29T05:47:00.174Z,6.20
2023-03-29T05:49:04.251Z,5.80
2023-03-29T05:51:30.858Z,6.20
2023-03-29T05:53:35.137Z,3.87
2023-03-29T05:55:38.430Z,4.90
2023-03-29T05:57:41.970Z,5.93
2023-03-29T05:59:46.910Z,6.40
2023-03-29T06:01:51.942Z,4.97
2023-03-29T06:03:57.894Z,5.30
2023-03-29T06:06:09.515Z,7.20
2023-03-29T06:08:13.237Z,3.93
2023-03-29T06:10:43.351Z,7.90
2023-03-29T06:13:00.746Z,3.77
2023-03-29T06:15:07.293Z,5.43
2023-03-29T06:17:15.466Z,8.40
2023-03-29T06:19:19.316Z,5.30
2023-03-29T06:21:23.415Z,5.37
2023-03-29T06:23:27.026Z,5.30
2023-03-29T06:25:30.599Z,4.03
2023-03-29T06:27:34.785Z,5.80
2023-03-29T06:29:38.207Z,5.13
2023-03-29T06:31:43.965Z,4.83
2023-03-29T06:34:04.635Z,4.63
2023-03-29T06:36:30.584Z,3.67
2023-03-29T06:38:35.219Z,3.70
2023-03-29T06:40:39.153Z,7.33
2023-03-29T06:42:42.913Z,7.40
2023-03-29T06:45:10.427Z,5.00
2023-03-29T06:47:17.790Z,3.33
2023-03-29T06:49:21.680Z,3.73
2023-03-29T06:51:51.332Z,4.20
2023-03-29T06:53:55.491Z,2.70
2023-03-29T06:55:59.557Z,2.80
2023-03-29T06:58:28.786Z,4.27
2023-03-29T07:00:37.786Z,3.57
2023-03-29T07:02:52.204Z,8.60
2023-03-29T07:04:56.107Z,5.10
2023-03-29T07:07:06.011Z,7.07
2023-03-29T07:09:12.824Z,3.87
2023-03-29T07:11:36.357Z,5.87
2023-03-29T07:13:53.114Z,4.57
2023-03-29T07:15:57.449Z,5.40
2023-03-29T07:18:18.416Z,6.73
2023-03-29T07:20:22.924Z,4.63
2023-03-29T07:22:34.782Z,4.07
2023-03-29T07:24:38.404Z,4.87
2023-03-29T07:26:52.216Z,5.20
2023-03-29T07:29:00.959Z,4.53
2023-03-29T07:31:06.785Z,6.10
2023-03-29T07:33:15.144Z,8.07
2023-03-29T07:35:32.773Z,3.77
2023-03-29T07:37:37.905Z,7.40
2023-03-29T07:39:43.704Z,5.27
2023-03-29T07:42:07.529Z,3.40
2023-03-29T07:44:10.868Z,3.53
2023-03-29T07:46:15.279Z,6.40
2023-03-29T07:48:20.532Z,4.73
2023-03-29T07:50:36.278Z,6.10
2023-03-29T07:52:41.272Z,4.30
2023-03-29T07:54:45.941Z,3.93
2023-03-29T07:56:58.426Z,3.90
2023-03-29T07:59:19.551Z,4.60
2023-03-29T08:01:29.601Z,4.20
2023-03-29T08:03:58.613Z,5.33
2023-03-29T08:06:23.309Z,6.10
2023-03-29T08:08:26.744Z,4.47
2023-03-29T08:10:34.640Z,5.13
2023-03-29T08:13:02.462Z,4.27
2023-03-29T08:15:15.614Z,3.73
2023-03-29T08:17:19.513Z,3.57
2023-03-29T08:19:26.206Z,4.77
2023-03-29T08:21:51.937Z,3.50
2023-03-29T08:23:57.687Z,5.10
2023-03-29T08:26:08.578Z,3.20
2023-03-29T08:28:12.345Z,4.23
2023-03-29T08:30:21.810Z,3.03
2023-03-29T08:32:26.348Z,2.60
2023-03-29T08:34:31.648Z,5.00
2023-03-29T08:36:55.715Z,6.50
2023-03-29T08:39:14.181Z,4.10
2023-03-29T08:41:33.385Z,5.40
2023-03-29T08:43:50.855Z,4.10
2023-03-29T08:46:08.450Z,4.80
2023-03-29T08:48:21.641Z,4.43
2023-03-29T08:50:33.522Z,9.23
2023-03-29T08:52:41.318Z,4.93
2023-03-29T08:55:04.382Z,4.70
2023-03-29T08:57:17.005Z,5.40
2023-03-29T08:59:29.614Z,4.27
2023-03-29T09:01:36.801Z,5.43
2023-03-29T09:03:46.354Z,4.90
2023-03-29T09:06:00.194Z,5.50
2023-03-29T09:08:05.032Z,4.03
2023-03-29T09:10:15.370Z,3.90
2023-03-29T09:12:31.098Z,4.40
2023-03-29T09:14:47.532Z,5.00
2023-03-29T09:17:01.084Z,6.23
2023-03-29T09:19:16.683Z,4.97
2023-03-29T09:21:27.342Z,6.30
2023-03-29T09:24:02.142Z,8.70
2023-03-29T09:26:28.352Z,6.10
2023-03-29T09:29:02.739Z,5.87
2023-03-29T09:31:13.089Z,5.73
2023-03-29T09:33:25.068Z,4.63
2023-03-29T09:35:40.116Z,5.27
2023-03-29T09:37:43.568Z,4.00
2023-03-29T09:39:49.253Z,8.80
2023-03-29T09:42:00.985Z,4.37
2023-03-29T09:44:15.015Z,6.20
2023-03-29T09:46:35.309Z,4.03
2023-03-29T09:48:44.590Z,4.70
2023-03-29T09:50:51.591Z,8.07
2023-03-29T09:52:56.616Z,9.30
2023-03-29T09:55:04.003Z,4.83
2023-03-29T09:57:33.819Z,6.80
2023-03-29T09:59:37.879Z,5.10
2023-03-29T10:01:46.671Z,3.90
2023-03-29T10:03:53.203Z,5.73
2023-03-29T10:06:01.532Z,5.70
2023-03-29T10:08:19.585Z,5.57
2023-03-29T10:10:29.654Z,9.47
2023-03-29T10:12:34.516Z,5.70
2023-03-29T10:14:41.817Z,7.43
2023-03-29T10:16:46.299Z,7.10
2023-03-29T10:18:51.036Z,5.50
2023-03-29T10:21:00.364Z,4.63
2023-03-29T10:23:06.419Z,5.97
2023-03-29T10:25:14.946Z,5.67
2023-03-29T10:27:23.245Z,4.17
2023-03-29T10:29:27.753Z,5.00
2023-03-29T10:31:32.983Z,3.90
2023-03-29T10:33:37.176Z,5.10
2023-03-29T10:35:42.820Z,4.87
2023-03-29T10:37:51.181Z,5.53
2023-03-29T10:39:55.470Z,4.27
2023-03-29T10:42:00.975Z,4.97
2023-03-29T10:44:05.948Z,4.80
2023-03-29T10:46:13.208Z,3.67
2023-03-29T10:48:19.293Z,4.80
2023-03-29T10:50:22.595Z,6.10
2023-03-29T10:52:26.606Z,6.10
2023-03-29T10:54:31.037Z,6.00
2023-03-29T10:56:40.666Z,8.23
2023-03-29T10:58:57.777Z,9.37
2023-03-29T11:01:03.882Z,8.00
2023-03-29T11:03:23.354Z,6.27
2023-03-29T11:05:33.825Z,5.93
2023-03-29T11:07:44.256Z,6.23
2023-03-29T11:09:53.809Z,6.37
2023-03-29T11:12:15.489Z,6.90
2023-03-29T11:14:33.560Z,6.33
2023-03-29T11:16:47.042Z,4.27
2023-03-29T11:19:14.434Z,4.20
2023-03-29T11:21:30.622Z,6.10
2023-03-29T11:23:48.063Z,5.20
2023-03-29T11:26:02.345Z,6.93
2023-03-29T11:28:14.468Z,4.77
2023-03-29T11:30:23.941Z,8.80
2023-03-29T11:32:34.301Z,5.37
2023-03-29T11:34:53.880Z,6.77
2023-03-29T11:37:04.673Z,9.63
2023-03-29T11:39:16.622Z,6.43
2023-03-29T11:41:25.342Z,6.60
2023-03-29T11:43:34.293Z,4.17
2023-03-29T11:45:43.046Z,6.67
2023-03-29T11:47:50.767Z,3.70
2023-03-29T11:49:58.415Z,4.17
2023-03-29T11:52:07.125Z,5.30
2023-03-29T11:54:19.049Z,4.13
2023-03-29T11:56:29.215Z,4.30
2023-03-29T11:58:38.350Z,6.23
2023-03-29T12:00:47.240Z,7.67
2023-03-29T12:02:56.728Z,9.90
2023-03-29T12:05:05.474Z,9.73
2023-03-29T12:07:15.680Z,6.37
2023-03-29T12:09:28.463Z,8.53
2023-03-29T12:11:37.722Z,6.67
2023-03-29T12:13:46.360Z,5.50
2023-03-29T12:15:56.828Z,4.90
2023-03-29T12:18:08.322Z,5.47
2023-03-29T12:20:19.039Z,6.97
2023-03-29T12:22:26.418Z,10.60
2023-03-29T12:24:32.417Z,4.53
2023-03-29T12:26:54.702Z,4.13
2023-03-29T12:29:11.128Z,3.60
2023-03-29T12:31:21.239Z,5.10
2023-03-29T12:33:52.576Z,4.60
2023-03-29T12:36:32.555Z,3.43
2023-03-29T12:39:05.447Z,3.87
2023-03-29T12:41:28.926Z,3.70
2023-03-29T12:43:39.654Z,3.47
2023-03-29T12:46:18.207Z,4.00
2023-03-29T12:48:25.373Z,4.43
2023-03-29T12:50:37.160Z,4.37
2023-03-29T12:52:43.269Z,3.33
2023-03-29T12:54:54.896Z,3.93
2023-03-29T12:57:01.466Z,5.63
2023-03-29T12:59:18.431Z,3.80
2023-03-29T13:01:28.263Z,3.13
2023-03-29T13:03:42.465Z,3.03
2023-03-29T13:05:48.137Z,2.73
2023-03-29T13:07:52.638Z,1.57
2023-03-29T13:09:57.865Z,2.30
2023-03-29T13:12:07.788Z,1.73
2023-03-29T13:14:16.563Z,1.57
2023-03-29T13:16:22.756Z,2.17
2023-03-29T13:18:40.014Z,3.97
2023-03-29T13:20:54.146Z,3.30
2023-03-29T13:23:10.475Z,1.83
2023-03-29T13:25:33.698Z,1.57
2023-03-29T13:27:47.345Z,1.73
2023-03-29T13:30:15.636Z,1.70
2023-03-29T13:32:32.097Z,2.53
2023-03-29T13:34:45.161Z,2.57
2023-03-29T13:37:00.790Z,1.90
2023-03-29T13:39:07.880Z,2.90
2023-03-29T13:41:28.780Z,1.77
2023-03-29T13:43:36.008Z,3.37
2023-03-29T13:45:40.478Z,2.10
2023-03-29T13:47:58.327Z,2.43
2023-03-29T13:50:18.792Z,1.50
2023-03-29T13:52:27.904Z,1.60
2023-03-29T13:54:36.545Z,2.27
2023-03-29T13:56:51.353Z,1.73
2023-03-29T13:58:58.522Z,1.67
2023-03-29T14:01:08.230Z,1.50
2023-03-29T14:03:15.737Z,3.30
2023-03-29T14:05:22.682Z,2.20
2023-03-29T14:07:31.133Z,3.50
2023-03-29T14:09:41.144Z,1.80
2023-03-29T14:11:45.997Z,2.63
2023-03-29T14:13:52.376Z,1.67
2023-03-29T14:15:59.907Z,1.70
2023-03-29T14:18:04.222Z,1.50
2023-03-29T14:20:10.889Z,1.40
2023-03-29T14:22:16.822Z,2.90
2023-03-29T14:24:24.483Z,2.80
2023-03-29T14:26:31.934Z,2.63
2023-03-29T14:28:35.674Z,2.33
2023-03-29T14:30:39.107Z,1.27
2023-03-29T14:32:42.635Z,2.60
2023-03-29T14:34:49.167Z,1.53
2023-03-29T14:36:53.919Z,1.83
2023-03-29T14:38:59.562Z,2.50
2023-03-29T14:41:04.917Z,3.83
2023-03-29T14:43:11.053Z,2.20
2023-03-29T14:45:17.320Z,2.03
2023-03-29T14:47:27.695Z,2.00
2023-03-29T14:49:32.589Z,1.63
2023-03-29T14:51:36.890Z,1.57
2023-03-29T14:53:41.615Z,1.90
2023-03-29T14:55:49.089Z,1.67
2023-03-29T14:57:55.863Z,2.80
2023-03-29T15:00:08.038Z,1.67
2023-03-29T15:02:23.883Z,1.77
2023-03-29T15:04:33.962Z,1.57
2023-03-29T15:06:39.977Z,5.80
2023-03-29T15:08:57.688Z,2.50
2023-03-29T15:11:15.231Z,2.70
2023-03-29T15:13:24.296Z,1.80
2023-03-29T15:15:27.822Z,3.80
2023-03-29T15:17:47.558Z,3.17
2023-03-29T15:19:58.259Z,1.87
2023-03-29T15:22:10.039Z,2.70
2023-03-29T15:24:22.027Z,2.60
2023-03-29T15:26:30.962Z,2.90
2023-03-29T15:28:46.738Z,2.30
2023-03-29T15:31:04.607Z,1.67
2023-03-29T15:33:17.759Z,1.93
2023-03-29T15:35:25.725Z,2.73
2023-03-29T15:37:29.536Z,1.40
2023-03-29T15:39:33.588Z,3.03
2023-03-29T15:41:36.994Z,2.67
2023-03-29T15:43:42.320Z,1.73
2023-03-29T15:45:47.353Z,2.30
2023-03-29T15:47:51.567Z,3.83
2023-03-29T15:49:54.824Z,1.70
2023-03-29T15:51:58.445Z,2.53
2023-03-29T15:54:01.775Z,2.10
2023-03-29T15:56:08.198Z,2.80
2023-03-29T15:58:14.934Z,2.73
2023-03-29T16:00:22.347Z,2.40
2023-03-29T16:02:26.130Z,2.80
2023-03-29T16:04:29.599Z,3.17
2023-03-29T16:06:34.450Z,2.90
2023-03-29T16:08:37.818Z,2.17
2023-03-29T16:10:43.727Z,3.20
2023-03-29T16:12:47.052Z,3.17
2023-03-29T16:14:50.333Z,3.50
2023-03-29T16:16:58.866Z,1.97
2023-03-29T16:19:02.360Z,3.67
2023-03-29T16:21:06.325Z,5.53
2023-03-29T16:23:09.816Z,3.80
2023-03-29T16:25:14.755Z,3.60
2023-03-29T16:27:18.865Z,3.90
2023-03-29T16:29:22.291Z,3.00
2023-03-29T16:31:26.985Z,3.40
2023-03-29T16:33:32.113Z,2.60
2023-03-29T16:35:37.828Z,3.03
2023-03-29T16:37:41.312Z,3.40
2023-03-29T16:39:44.708Z,4.00
2023-03-29T16:41:50.040Z,4.40
2023-03-29T16:43:53.731Z,6.33
2023-03-29T16:45:57.755Z,3.13
2023-03-29T16:48:01.693Z,5.30
2023-03-29T16:50:08.134Z,5.07
2023-03-29T16:52:11.488Z,2.83
2023-03-29T16:54:15.512Z,3.70
2023-03-29T16:56:21.942Z,2.80
2023-03-29T16:58:25.604Z,3.23
2023-03-29T17:00:29.143Z,2.83
2023-03-29T17:02:32.518Z,3.23
2023-03-29T17:04:36.042Z,3.33
2023-03-29T17:06:41.938Z,2.40
2023-03-29T17:08:45.292Z,6.43
2023-03-29T17:10:52.777Z,3.70
2023-03-29T17:12:56.215Z,2.80
2023-03-29T17:14:59.717Z,4.83
2023-03-29T17:17:03.054Z,4.07
2023-03-29T17:19:06.447Z,2.73
2023-03-29T17:21:09.946Z,2.20
2023-03-29T17:23:14.663Z,3.10
2023-03-29T17:25:18.254Z,2.73
2023-03-29T17:27:21.648Z,3.93
2023-03-29T17:29:25.298Z,3.50
2023-03-29T17:31:28.633Z,2.40
2023-03-29T17:33:32.272Z,2.90
2023-03-29T17:35:35.844Z,4.50
2023-03-29T17:37:39.400Z,3.00
2023-03-29T17:39:46.006Z,2.60
2023-03-29T17:41:49.567Z,3.03
2023-03-29T17:43:52.954Z,1.80
2023-03-29T17:45:56.621Z,2.40
2023-03-29T17:48:00.250Z,2.10
2023-03-29T17:50:06.110Z,2.40
2023-03-29T17:52:09.512Z,2.03
2023-03-29T17:54:13.131Z,2.93
2023-03-29T17:56:17.810Z,2.60
2023-03-29T17:58:21.370Z,3.00
2023-03-29T18:00:24.766Z,3.10
2023-03-29T18:02:28.274Z,2.80
2023-03-29T18:04:32.179Z,4.57
2023-03-29T18:06:35.915Z,8.20
2023-03-29T18:08:40.643Z,5.57
2023-03-29T18:10:44.166Z,4.73
2023-03-29T18:12:49.165Z,2.10
2023-03-29T18:14:53.206Z,6.03
2023-03-29T18:16:57.086Z,4.47
2023-03-29T18:19:00.550Z,2.20
2023-03-29T18:21:04.201Z,1.83
2023-03-29T18:23:07.575Z,3.67
2023-03-29T18:25:11.460Z,2.50
2023-03-29T18:27:15.748Z,2.37
2023-03-29T18:29:20.944Z,2.23
2023-03-29T18:31:24.347Z,2.67
2023-03-29T18:33:30.154Z,2.13
2023-03-29T18:35:33.566Z,3.20
2023-03-29T18:37:37.232Z,2.20
2023-03-29T18:39:41.265Z,2.00
2023-03-29T18:41:44.657Z,3.60
2023-03-29T18:43:48.291Z,2.90
2023-03-29T18:45:53.001Z,3.27
2023-03-29T18:47:56.638Z,2.23
2023-03-29T18:50:00.329Z,2.47
2023-03-29T18:52:04.690Z,2.70
2023-03-29T18:54:08.940Z,3.67
2023-03-29T18:56:12.293Z,2.77
2023-03-29T18:58:17.697Z,2.40
2023-03-29T19:00:21.041Z,3.77
2023-03-29T19:02:25.837Z,2.90
2023-03-29T19:04:29.895Z,4.20
2023-03-29T19:06:33.358Z,3.97
2023-03-29T19:08:39.689Z,2.50
2023-03-29T19:10:43.015Z,3.67
2023-03-29T19:12:46.492Z,3.30
2023-03-29T19:14:50.053Z,2.53
2023-03-29T19:16:53.728Z,2.20
2023-03-29T19:18:58.498Z,2.60
2023-03-29T19:21:02.527Z,3.83
2023-03-29T19:23:06.495Z,4.80
2023-03-29T19:25:10.991Z,7.97
2023-03-29T19:27:14.657Z,10.80
2023-03-29T19:29:18.292Z,4.50
2023-03-29T19:31:22.564Z,4.20
2023-03-29T19:33:26.622Z,2.93
2023-03-29T19:35:31.325Z,2.93
2023-03-29T19:37:34.737Z,4.33
2023-03-29T19:39:39.892Z,3.50
2023-03-29T19:41:43.219Z,4.27
2023-03-29T19:43:46.607Z,4.07
2023-03-29T19:45:51.499Z,2.70
2023-03-29T19:47:55.551Z,2.80
2023-03-29T19:49:59.143Z,3.10
2023-03-29T19:52:04.066Z,3.80
2023-03-29T19:54:07.957Z,4.57
2023-03-29T19:56:13.186Z,4.23
2023-03-29T19:58:16.673Z,3.43
2023-03-29T20:00:24.343Z,3.33
2023-03-29T20:02:27.885Z,3.10
2023-03-29T20:04:33.214Z,4.50
2023-03-29T20:06:36.973Z,3.83
2023-03-29T20:08:41.735Z,4.20
2023-03-29T20:10:45.189Z,3.97
2023-03-29T20:12:48.649Z,5.33
2023-03-29T20:14:54.260Z,5.60
2023-03-29T20:16:57.751Z,3.90
2023-03-29T20:19:01.990Z,3.27
2023-03-29T20:21:05.574Z,4.10
2023-03-29T20:23:09.045Z,6.27
2023-03-29T20:25:13.951Z,5.57
2023-03-29T20:27:17.287Z,3.67
2023-03-29T20:29:20.622Z,3.17
2023-03-29T20:31:24.321Z,5.67
2023-03-29T20:33:27.673Z,2.73
2023-03-29T20:35:31.198Z,5.57
2023-03-29T20:37:34.592Z,5.97
2023-03-29T20:39:38.194Z,9.80
2023-03-29T20:41:47.317Z,5.00
2023-03-29T20:43:58.374Z,4.03
2023-03-29T20:46:02.018Z,3.40
2023-03-29T20:48:05.584Z,3.03
2023-03-29T20:50:10.496Z,3.97
2023-03-29T20:52:16.321Z,6.80
2023-03-29T20:54:19.643Z,5.37
2023-03-29T20:56:26.070Z,6.07
2023-03-29T20:58:32.007Z,4.40
2023-03-29T21:00:37.595Z,4.20
2023-03-29T21:02:41.052Z,5.10
2023-03-29T21:04:44.809Z,5.70
2023-03-29T21:06:51.869Z,5.10
2023-03-29T21:08:55.253Z,3.40
2023-03-29T21:10:58.630Z,5.60
2023-03-29T21:13:02.644Z,6.00
2023-03-29T21:15:09.422Z,7.57
2023-03-29T21:17:13.229Z,6.10
2023-03-29T21:19:19.204Z,8.60
2023-03-29T21:21:23.042Z,5.77
2023-03-29T21:23:26.335Z,8.87
2023-03-29T21:25:29.852Z,6.50
2023-03-29T21:27:33.233Z,5.70
2023-03-29T21:29:36.618Z,6.60
2023-03-29T21:31:41.805Z,7.50
2023-03-29T21:33:45.156Z,11.00
2023-03-29T21:35:49.137Z,11.10
2023-03-29T21:37:52.617Z,8.80
2023-03-29T21:39:55.926Z,11.47
2023-03-29T21:42:01.824Z,7.80
2023-03-29T21:44:05.276Z,7.60
2023-03-29T21:46:08.740Z,4.90
2023-03-29T21:48:13.647Z,7.37
2023-03-29T21:50:17.109Z,5.17
2023-03-29T21:52:21.454Z,7.00
2023-03-29T21:54:24.798Z,6.50
2023-03-29T21:56:28.904Z,7.80
2023-03-29T21:58:32.288Z,3.30
2023-03-29T22:00:35.788Z,5.67
2023-03-29T22:02:40.277Z,4.10
2023-03-29T22:04:45.207Z,5.67
2023-03-29T22:06:49.347Z,5.90
2023-03-29T22:08:53.098Z,3.23
2023-03-29T22:10:57.085Z,4.20
2023-03-29T22:13:01.220Z,5.43
2023-03-29T22:15:07.643Z,3.90
2023-03-29T22:17:11.979Z,4.67
2023-03-29T22:19:15.334Z,5.90
2023-03-29T22:21:23.385Z,3.90
2023-03-29T22:23:26.683Z,3.67
2023-03-29T22:25:31.915Z,4.53
2023-03-29T22:27:35.397Z,4.27
2023-03-29T22:29:38.921Z,4.43
2023-03-29T22:31:42.342Z,3.07
2023-03-29T22:33:46.600Z,3.93
2023-03-29T22:35:50.179Z,3.70
2023-03-29T22:37:54.943Z,5.83
2023-03-29T22:39:58.346Z,5.40
2023-03-29T22:42:01.911Z,6.73
2023-03-29T22:44:08.217Z,8.00
2023-03-29T22:46:13.711Z,7.07
2023-03-29T22:48:17.484Z,9.70
2023-03-29T22:50:20.834Z,7.23
2023-03-29T22:52:25.331Z,9.00
2023-03-29T22:54:30.682Z,7.40
2023-03-29T22:56:34.000Z,7.20
2023-03-29T22:58:37.761Z,7.53
2023-03-29T23:00:41.163Z,8.00
2023-03-29T23:02:44.518Z,14.37
2023-03-29T23:04:47.986Z,11.30
2023-03-29T23:06:51.387Z,7.40
2023-03-29T23:08:54.973Z,6.50
2023-03-29T23:10:59.867Z,11.13
2023-03-29T23:13:08.749Z,6.53
2023-03-29T23:15:13.402Z,7.20
2023-03-29T23:17:19.219Z,5.40
2023-03-29T23:19:22.940Z,5.33
2023-03-29T23:21:26.256Z,6.80
2023-03-29T23:23:29.677Z,6.13
2023-03-29T23:25:33.382Z,5.07
2023-03-29T23:27:38.254Z,3.03
2023-03-29T23:29:42.285Z,5.43
2023-03-29T23:31:47.726Z,3.90
2023-03-29T23:33:52.976Z,6.00
2023-03-29T23:35:56.330Z,3.73
2023-03-29T23:38:00.745Z,3.30
2023-03-29T23:40:09.023Z,2.87
2023-03-29T23:42:12.746Z,3.63
2023-03-29T23:44:17.771Z,3.40
2023-03-29T23:46:21.391Z,3.30
2023-03-29T23:48:25.855Z,2.97
2023-03-29T23:50:29.958Z,3.10
2023-03-29T23:52:34.279Z,5.30
2023-03-29T23:54:38.475Z,3.43
2023-03-29T23:56:41.930Z,2.50
2023-03-29T23:58:45.557Z,3.00
